sensor_id;sensor_type;location;lat;lon;timestamp;temperature;humidity
14188;DHT22;7175;51.978;5.330;2022-12-11T00:00:53;2.30;99.90
14188;DHT22;7175;51.978;5.330;2022-12-11T00:03:21;2.30;99.90
14188;DHT22;7175;51.978;5.330;2022-12-11T00:05:49;2.30;99.90
14188;DHT22;7175;51.978;5.330;2022-12-11T00:08:17;2.30;99.90
14188;DHT22;7175;51.978;5.330;2022-12-11T00:10:47;2.30;99.90
14188;DHT22;7175;51.978;5.330;2022-12-11T00:13:17;2.30;99.90
14188;DHT22;7175;51.978;5.330;2022-12-11T00:15:45;2.30;99.90
14188;DHT22;7175;51.978;5.330;2022-12-11T00:18:13;2.30;99.90
14188;DHT22;7175;51.978;5.330;2022-12-11T00:20:41;2.30;99.90
14188;DHT22;7175;51.978;5.330;2022-12-11T00:23:09;2.30;99.90
14188;DHT22;7175;51.978;5.330;2022-12-11T00:25:40;2.40;99.90
14188;DHT22;7175;51.978;5.330;2022-12-11T00:28:08;2.40;99.90
14188;DHT22;7175;51.978;5.330;2022-12-11T00:30:39;2.30;99.90
14188;DHT22;7175;51.978;5.330;2022-12-11T00:33:08;2.30;99.90
14188;DHT22;7175;51.978;5.330;2022-12-11T00:35:37;2.30;99.90
14188;DHT22;7175;51.978;5.330;2022-12-11T00:38:05;2.30;99.90
14188;DHT22;7175;51.978;5.330;2022-12-11T00:40:34;2.30;99.90
14188;DHT22;7175;51.978;5.330;2022-12-11T00:43:02;2.30;99.90
14188;DHT22;7175;51.978;5.330;2022-12-11T00:45:34;2.40;99.90
14188;DHT22;7175;51.978;5.330;2022-12-11T00:48:04;2.40;99.90
14188;DHT22;7175;51.978;5.330;2022-12-11T00:50:33;2.40;99.90
14188;DHT22;7175;51.978;5.330;2022-12-11T00:53:01;2.40;99.90
14188;DHT22;7175;51.978;5.330;2022-12-11T00:55:29;2.40;99.90
14188;DHT22;7175;51.978;5.330;2022-12-11T00:57:57;2.40;99.90
14188;DHT22;7175;51.978;5.330;2022-12-11T01:00:26;2.30;99.90
14188;DHT22;7175;51.978;5.330;2022-12-11T01:02:54;2.40;99.90
14188;DHT22;7175;51.978;5.330;2022-12-11T01:05:24;2.40;99.90
14188;DHT22;7175;51.978;5.330;2022-12-11T01:07:52;2.40;99.90
14188;DHT22;7175;51.978;5.330;2022-12-11T01:10:20;2.40;99.90
14188;DHT22;7175;51.978;5.330;2022-12-11T01:12:51;2.40;99.90
14188;DHT22;7175;51.978;5.330;2022-12-11T01:15:20;2.40;99.90
14188;DHT22;7175;51.978;5.330;2022-12-11T01:17:50;2.40;99.90
14188;DHT22;7175;51.978;5.330;2022-12-11T01:20:19;2.40;99.90
14188;DHT22;7175;51.978;5.330;2022-12-11T01:22:51;2.40;99.90
14188;DHT22;7175;51.978;5.330;2022-12-11T01:25:19;2.40;99.90
14188;DHT22;7175;51.978;5.330;2022-12-11T01:27:49;2.40;99.90
14188;DHT22;7175;51.978;5.330;2022-12-11T01:30:20;2.40;99.90
14188;DHT22;7175;51.978;5.330;2022-12-11T01:32:49;2.40;99.90
14188;DHT22;7175;51.978;5.330;2022-12-11T01:35:18;2.40;99.90
14188;DHT22;7175;51.978;5.330;2022-12-11T01:37:46;2.40;99.90
14188;DHT22;7175;51.978;5.330;2022-12-11T01:40:17;2.40;99.90
14188;DHT22;7175;51.978;5.330;2022-12-11T01:42:46;2.40;99.90
14188;DHT22;7175;51.978;5.330;2022-12-11T01:45:37;2.40;99.90
14188;DHT22;7175;51.978;5.330;2022-12-11T01:48:08;2.40;99.90
14188;DHT22;7175;51.978;5.330;2022-12-11T01:50:41;2.40;99.90
14188;DHT22;7175;51.978;5.330;2022-12-11T01:53:13;2.40;99.90
14188;DHT22;7175;51.978;5.330;2022-12-11T01:55:47;2.40;99.90
14188;DHT22;7175;51.978;5.330;2022-12-11T01:58:17;2.40;99.90
14188;DHT22;7175;51.978;5.330;2022-12-11T02:00:46;2.40;99.90
14188;DHT22;7175;51.978;5.330;2022-12-11T02:03:15;2.40;99.90
14188;DHT22;7175;51.978;5.330;2022-12-11T02:05:43;2.40;99.90
14188;DHT22;7175;51.978;5.330;2022-12-11T02:08:11;2.40;99.90
14188;DHT22;7175;51.978;5.330;2022-12-11T02:10:51;2.40;99.90
14188;DHT22;7175;51.978;5.330;2022-12-11T02:13:25;2.40;99.90
14188;DHT22;7175;51.978;5.330;2022-12-11T02:15:58;2.50;99.90
14188;DHT22;7175;51.978;5.330;2022-12-11T02:18:33;2.50;99.90
14188;DHT22;7175;51.978;5.330;2022-12-11T02:21:07;2.50;99.90
14188;DHT22;7175;51.978;5.330;2022-12-11T02:24:14;2.50;99.90
14188;DHT22;7175;51.978;5.330;2022-12-11T02:26:59;2.50;99.90
14188;DHT22;7175;51.978;5.330;2022-12-11T02:29:34;2.50;99.90
14188;DHT22;7175;51.978;5.330;2022-12-11T02:32:07;2.50;99.90
14188;DHT22;7175;51.978;5.330;2022-12-11T02:34:40;2.50;99.90
14188;DHT22;7175;51.978;5.330;2022-12-11T02:37:13;2.50;99.90
14188;DHT22;7175;51.978;5.330;2022-12-11T02:39:43;2.50;99.90
14188;DHT22;7175;51.978;5.330;2022-12-11T02:42:13;2.50;99.90
14188;DHT22;7175;51.978;5.330;2022-12-11T02:44:44;2.50;99.90
14188;DHT22;7175;51.978;5.330;2022-12-11T02:47:14;2.50;99.90
14188;DHT22;7175;51.978;5.330;2022-12-11T02:49:45;2.60;99.90
14188;DHT22;7175;51.978;5.330;2022-12-11T02:52:16;2.60;99.90
14188;DHT22;7175;51.978;5.330;2022-12-11T02:54:46;2.50;99.90
14188;DHT22;7175;51.978;5.330;2022-12-11T02:57:22;2.60;99.90
14188;DHT22;7175;51.978;5.330;2022-12-11T02:59:53;2.60;99.90
14188;DHT22;7175;51.978;5.330;2022-12-11T03:02:22;2.60;99.90
14188;DHT22;7175;51.978;5.330;2022-12-11T03:04:50;2.60;99.90
14188;DHT22;7175;51.978;5.330;2022-12-11T03:07:22;2.60;99.90
14188;DHT22;7175;51.978;5.330;2022-12-11T03:09:52;2.50;99.90
14188;DHT22;7175;51.978;5.330;2022-12-11T03:12:24;2.60;99.90
14188;DHT22;7175;51.978;5.330;2022-12-11T03:14:58;2.60;99.90
14188;DHT22;7175;51.978;5.330;2022-12-11T03:17:30;2.60;99.90
14188;DHT22;7175;51.978;5.330;2022-12-11T03:20:07;2.60;99.90
14188;DHT22;7175;51.978;5.330;2022-12-11T03:22:42;2.60;99.90
14188;DHT22;7175;51.978;5.330;2022-12-11T03:25:14;2.60;99.90
14188;DHT22;7175;51.978;5.330;2022-12-11T03:27:46;2.60;99.90
14188;DHT22;7175;51.978;5.330;2022-12-11T03:30:20;2.60;99.90
14188;DHT22;7175;51.978;5.330;2022-12-11T03:32:53;2.60;99.90
14188;DHT22;7175;51.978;5.330;2022-12-11T03:35:25;2.60;99.90
14188;DHT22;7175;51.978;5.330;2022-12-11T03:37:59;2.60;99.90
14188;DHT22;7175;51.978;5.330;2022-12-11T03:40:31;2.60;99.90
14188;DHT22;7175;51.978;5.330;2022-12-11T03:43:00;2.60;99.90
14188;DHT22;7175;51.978;5.330;2022-12-11T03:45:31;2.70;99.90
14188;DHT22;7175;51.978;5.330;2022-12-11T03:48:01;2.70;99.90
14188;DHT22;7175;51.978;5.330;2022-12-11T03:50:31;2.70;99.90
14188;DHT22;7175;51.978;5.330;2022-12-11T03:52:59;2.70;99.90
14188;DHT22;7175;51.978;5.330;2022-12-11T03:55:29;2.60;99.90
14188;DHT22;7175;51.978;5.330;2022-12-11T03:57:59;2.70;99.90
14188;DHT22;7175;51.978;5.330;2022-12-11T04:00:28;2.60;99.90
14188;DHT22;7175;51.978;5.330;2022-12-11T04:02:58;2.60;99.90
14188;DHT22;7175;51.978;5.330;2022-12-11T04:05:44;2.60;99.90
14188;DHT22;7175;51.978;5.330;2022-12-11T04:08:13;2.60;99.90
14188;DHT22;7175;51.978;5.330;2022-12-11T04:10:41;2.60;99.90
14188;DHT22;7175;51.978;5.330;2022-12-11T04:13:10;2.60;99.90
14188;DHT22;7175;51.978;5.330;2022-12-11T04:15:39;2.60;99.90
14188;DHT22;7175;51.978;5.330;2022-12-11T04:18:08;2.60;99.90
14188;DHT22;7175;51.978;5.330;2022-12-11T04:20:54;2.60;99.90
14188;DHT22;7175;51.978;5.330;2022-12-11T04:23:40;2.60;99.90
14188;DHT22;7175;51.978;5.330;2022-12-11T04:26:26;2.60;99.90
14188;DHT22;7175;51.978;5.330;2022-12-11T04:28:56;2.60;99.90
14188;DHT22;7175;51.978;5.330;2022-12-11T04:31:24;2.60;99.90
14188;DHT22;7175;51.978;5.330;2022-12-11T04:33:55;2.60;99.90
14188;DHT22;7175;51.978;5.330;2022-12-11T04:36:24;2.70;99.90
14188;DHT22;7175;51.978;5.330;2022-12-11T04:38:52;2.70;99.90
14188;DHT22;7175;51.978;5.330;2022-12-11T04:41:20;2.70;99.90
14188;DHT22;7175;51.978;5.330;2022-12-11T04:43:48;2.70;99.90
14188;DHT22;7175;51.978;5.330;2022-12-11T04:46:19;2.70;99.90
14188;DHT22;7175;51.978;5.330;2022-12-11T04:48:48;2.70;99.90
14188;DHT22;7175;51.978;5.330;2022-12-11T04:51:24;2.70;99.90
14188;DHT22;7175;51.978;5.330;2022-12-11T04:53:53;2.70;99.90
14188;DHT22;7175;51.978;5.330;2022-12-11T04:56:21;2.70;99.90
14188;DHT22;7175;51.978;5.330;2022-12-11T04:58:49;2.70;99.90
14188;DHT22;7175;51.978;5.330;2022-12-11T05:01:18;2.70;99.90
14188;DHT22;7175;51.978;5.330;2022-12-11T05:03:47;2.70;99.90
14188;DHT22;7175;51.978;5.330;2022-12-11T05:06:15;2.70;99.90
14188;DHT22;7175;51.978;5.330;2022-12-11T05:08:44;2.70;99.90
14188;DHT22;7175;51.978;5.330;2022-12-11T05:11:14;2.70;99.90
14188;DHT22;7175;51.978;5.330;2022-12-11T05:13:43;2.70;99.90
14188;DHT22;7175;51.978;5.330;2022-12-11T05:16:13;2.70;99.90
14188;DHT22;7175;51.978;5.330;2022-12-11T05:18:42;2.70;99.90
14188;DHT22;7175;51.978;5.330;2022-12-11T05:21:11;2.70;99.90
14188;DHT22;7175;51.978;5.330;2022-12-11T05:23:40;2.70;99.90
14188;DHT22;7175;51.978;5.330;2022-12-11T05:26:13;2.70;99.90
14188;DHT22;7175;51.978;5.330;2022-12-11T05:28:42;2.70;99.90
14188;DHT22;7175;51.978;5.330;2022-12-11T05:31:13;2.70;99.90
14188;DHT22;7175;51.978;5.330;2022-12-11T05:33:42;2.70;99.90
14188;DHT22;7175;51.978;5.330;2022-12-11T05:36:14;2.70;99.90
14188;DHT22;7175;51.978;5.330;2022-12-11T05:38:43;2.70;99.90
14188;DHT22;7175;51.978;5.330;2022-12-11T05:41:15;2.70;99.90
14188;DHT22;7175;51.978;5.330;2022-12-11T05:43:44;2.70;99.90
14188;DHT22;7175;51.978;5.330;2022-12-11T05:46:14;2.80;99.90
14188;DHT22;7175;51.978;5.330;2022-12-11T05:48:45;2.70;99.90
14188;DHT22;7175;51.978;5.330;2022-12-11T05:51:15;2.80;99.90
14188;DHT22;7175;51.978;5.330;2022-12-11T05:53:45;2.80;99.90
14188;DHT22;7175;51.978;5.330;2022-12-11T05:56:16;2.80;99.90
14188;DHT22;7175;51.978;5.330;2022-12-11T05:58:46;2.80;99.90
14188;DHT22;7175;51.978;5.330;2022-12-11T06:01:16;2.80;99.90
14188;DHT22;7175;51.978;5.330;2022-12-11T06:03:45;2.80;99.90
14188;DHT22;7175;51.978;5.330;2022-12-11T06:06:14;2.80;99.90
14188;DHT22;7175;51.978;5.330;2022-12-11T06:08:42;2.80;99.90
14188;DHT22;7175;51.978;5.330;2022-12-11T06:11:11;2.80;99.90
14188;DHT22;7175;51.978;5.330;2022-12-11T06:13:41;2.70;99.90
14188;DHT22;7175;51.978;5.330;2022-12-11T06:16:09;2.80;99.90
14188;DHT22;7175;51.978;5.330;2022-12-11T06:18:39;2.80;99.90
14188;DHT22;7175;51.978;5.330;2022-12-11T06:21:12;2.80;99.90
14188;DHT22;7175;51.978;5.330;2022-12-11T06:23:41;2.80;99.90
14188;DHT22;7175;51.978;5.330;2022-12-11T06:26:09;2.80;99.90
14188;DHT22;7175;51.978;5.330;2022-12-11T06:28:40;2.80;99.90
14188;DHT22;7175;51.978;5.330;2022-12-11T06:31:09;2.80;99.90
14188;DHT22;7175;51.978;5.330;2022-12-11T06:33:37;2.80;99.90
14188;DHT22;7175;51.978;5.330;2022-12-11T06:36:07;2.80;99.90
14188;DHT22;7175;51.978;5.330;2022-12-11T06:38:36;2.70;99.90
14188;DHT22;7175;51.978;5.330;2022-12-11T06:41:06;2.70;99.90
14188;DHT22;7175;51.978;5.330;2022-12-11T06:43:36;2.80;99.90
14188;DHT22;7175;51.978;5.330;2022-12-11T06:46:08;2.80;99.90
14188;DHT22;7175;51.978;5.330;2022-12-11T06:48:36;2.70;99.90
14188;DHT22;7175;51.978;5.330;2022-12-11T06:51:05;2.70;99.90
14188;DHT22;7175;51.978;5.330;2022-12-11T06:53:34;2.80;99.90
14188;DHT22;7175;51.978;5.330;2022-12-11T06:56:03;2.70;99.90
14188;DHT22;7175;51.978;5.330;2022-12-11T06:58:33;2.80;99.90
14188;DHT22;7175;51.978;5.330;2022-12-11T07:01:02;2.70;99.90
14188;DHT22;7175;51.978;5.330;2022-12-11T07:03:31;2.70;99.90
14188;DHT22;7175;51.978;5.330;2022-12-11T07:06:00;2.70;99.90
14188;DHT22;7175;51.978;5.330;2022-12-11T07:08:28;2.70;99.90
14188;DHT22;7175;51.978;5.330;2022-12-11T07:11:03;2.70;99.90
14188;DHT22;7175;51.978;5.330;2022-12-11T07:13:31;2.70;99.90
14188;DHT22;7175;51.978;5.330;2022-12-11T07:15:59;2.70;99.90
14188;DHT22;7175;51.978;5.330;2022-12-11T07:18:28;2.70;99.90
14188;DHT22;7175;51.978;5.330;2022-12-11T07:20:58;2.70;99.90
14188;DHT22;7175;51.978;5.330;2022-12-11T07:23:27;2.70;99.90
14188;DHT22;7175;51.978;5.330;2022-12-11T07:25:56;2.60;99.90
14188;DHT22;7175;51.978;5.330;2022-12-11T07:28:24;2.60;99.90
14188;DHT22;7175;51.978;5.330;2022-12-11T07:30:52;2.60;99.90
14188;DHT22;7175;51.978;5.330;2022-12-11T07:33:21;2.70;99.90
14188;DHT22;7175;51.978;5.330;2022-12-11T07:35:49;2.70;99.90
14188;DHT22;7175;51.978;5.330;2022-12-11T07:38:18;2.70;99.90
14188;DHT22;7175;51.978;5.330;2022-12-11T07:40:46;2.70;99.90
14188;DHT22;7175;51.978;5.330;2022-12-11T07:43:14;2.70;99.90
14188;DHT22;7175;51.978;5.330;2022-12-11T07:45:43;2.70;99.90
14188;DHT22;7175;51.978;5.330;2022-12-11T07:48:12;2.60;99.90
14188;DHT22;7175;51.978;5.330;2022-12-11T07:50:41;2.60;99.90
14188;DHT22;7175;51.978;5.330;2022-12-11T07:53:09;2.60;99.90
14188;DHT22;7175;51.978;5.330;2022-12-11T07:55:39;2.60;99.90
14188;DHT22;7175;51.978;5.330;2022-12-11T07:58:07;2.60;99.90
14188;DHT22;7175;51.978;5.330;2022-12-11T08:00:35;2.60;99.90
14188;DHT22;7175;51.978;5.330;2022-12-11T08:03:03;2.60;99.90
14188;DHT22;7175;51.978;5.330;2022-12-11T08:05:32;2.50;99.90
14188;DHT22;7175;51.978;5.330;2022-12-11T08:07:59;2.50;99.90
14188;DHT22;7175;51.978;5.330;2022-12-11T08:10:28;2.50;99.90
14188;DHT22;7175;51.978;5.330;2022-12-11T08:12:57;2.50;99.90
14188;DHT22;7175;51.978;5.330;2022-12-11T08:15:25;2.60;99.90
14188;DHT22;7175;51.978;5.330;2022-12-11T08:17:53;2.60;99.90
14188;DHT22;7175;51.978;5.330;2022-12-11T08:20:22;2.60;99.90
14188;DHT22;7175;51.978;5.330;2022-12-11T08:22:50;2.60;99.90
14188;DHT22;7175;51.978;5.330;2022-12-11T08:25:24;2.60;99.90
14188;DHT22;7175;51.978;5.330;2022-12-11T08:27:53;2.60;99.90
14188;DHT22;7175;51.978;5.330;2022-12-11T08:30:22;2.60;99.90
14188;DHT22;7175;51.978;5.330;2022-12-11T08:32:50;2.70;99.90
14188;DHT22;7175;51.978;5.330;2022-12-11T08:35:19;2.70;99.90
14188;DHT22;7175;51.978;5.330;2022-12-11T08:37:47;2.70;99.90
14188;DHT22;7175;51.978;5.330;2022-12-11T08:40:15;2.80;99.90
14188;DHT22;7175;51.978;5.330;2022-12-11T08:42:43;2.80;99.90
14188;DHT22;7175;51.978;5.330;2022-12-11T08:45:11;2.80;99.90
14188;DHT22;7175;51.978;5.330;2022-12-11T08:47:41;2.70;99.90
14188;DHT22;7175;51.978;5.330;2022-12-11T08:50:09;2.80;99.90
14188;DHT22;7175;51.978;5.330;2022-12-11T08:52:37;2.80;99.90
14188;DHT22;7175;51.978;5.330;2022-12-11T08:55:06;2.90;99.90
14188;DHT22;7175;51.978;5.330;2022-12-11T08:57:35;2.80;99.90
14188;DHT22;7175;51.978;5.330;2022-12-11T09:00:06;2.80;99.90
14188;DHT22;7175;51.978;5.330;2022-12-11T09:02:35;2.80;99.90
14188;DHT22;7175;51.978;5.330;2022-12-11T09:05:06;2.90;99.90
14188;DHT22;7175;51.978;5.330;2022-12-11T09:07:36;2.90;99.90
14188;DHT22;7175;51.978;5.330;2022-12-11T09:10:06;2.90;99.90
14188;DHT22;7175;51.978;5.330;2022-12-11T09:12:36;2.90;99.90
14188;DHT22;7175;51.978;5.330;2022-12-11T09:15:05;2.90;99.90
14188;DHT22;7175;51.978;5.330;2022-12-11T09:17:33;2.90;99.90
14188;DHT22;7175;51.978;5.330;2022-12-11T09:20:02;2.90;99.90
14188;DHT22;7175;51.978;5.330;2022-12-11T09:22:32;2.90;99.90
14188;DHT22;7175;51.978;5.330;2022-12-11T09:25:00;2.90;99.90
14188;DHT22;7175;51.978;5.330;2022-12-11T09:27:28;2.90;99.90
14188;DHT22;7175;51.978;5.330;2022-12-11T09:29:56;2.90;99.90
14188;DHT22;7175;51.978;5.330;2022-12-11T09:32:25;2.90;99.90
14188;DHT22;7175;51.978;5.330;2022-12-11T09:34:53;2.90;99.90
14188;DHT22;7175;51.978;5.330;2022-12-11T09:37:21;2.90;99.90
14188;DHT22;7175;51.978;5.330;2022-12-11T09:39:51;2.90;99.90
14188;DHT22;7175;51.978;5.330;2022-12-11T09:42:23;3.00;99.90
14188;DHT22;7175;51.978;5.330;2022-12-11T09:44:54;3.00;99.90
14188;DHT22;7175;51.978;5.330;2022-12-11T09:47:34;3.00;99.90
14188;DHT22;7175;51.978;5.330;2022-12-11T09:50:09;3.00;99.90
14188;DHT22;7175;51.978;5.330;2022-12-11T09:52:52;3.00;99.90
14188;DHT22;7175;51.978;5.330;2022-12-11T09:55:25;3.10;99.90
14188;DHT22;7175;51.978;5.330;2022-12-11T09:58:03;3.00;99.90
14188;DHT22;7175;51.978;5.330;2022-12-11T10:00:37;3.00;99.90
14188;DHT22;7175;51.978;5.330;2022-12-11T10:06:11;3.10;99.90
14188;DHT22;7175;51.978;5.330;2022-12-11T10:08:49;3.10;99.90
14188;DHT22;7175;51.978;5.330;2022-12-11T10:11:33;3.10;99.90
14188;DHT22;7175;51.978;5.330;2022-12-11T10:14:12;3.10;99.90
14188;DHT22;7175;51.978;5.330;2022-12-11T10:16:44;3.10;99.90
14188;DHT22;7175;51.978;5.330;2022-12-11T10:19:16;3.20;99.90
14188;DHT22;7175;51.978;5.330;2022-12-11T10:21:45;3.20;99.90
14188;DHT22;7175;51.978;5.330;2022-12-11T10:24:19;3.10;99.90
14188;DHT22;7175;51.978;5.330;2022-12-11T10:27:15;3.20;99.90
14188;DHT22;7175;51.978;5.330;2022-12-11T10:29:45;3.20;99.90
14188;DHT22;7175;51.978;5.330;2022-12-11T10:32:20;3.20;99.90
14188;DHT22;7175;51.978;5.330;2022-12-11T10:34:54;3.30;99.90
14188;DHT22;7175;51.978;5.330;2022-12-11T10:37:24;3.30;99.90
14188;DHT22;7175;51.978;5.330;2022-12-11T10:39:52;3.30;99.90
14188;DHT22;7175;51.978;5.330;2022-12-11T10:42:22;3.30;99.90
14188;DHT22;7175;51.978;5.330;2022-12-11T10:44:58;3.30;99.90
14188;DHT22;7175;51.978;5.330;2022-12-11T10:47:28;3.30;99.90
14188;DHT22;7175;51.978;5.330;2022-12-11T10:49:58;3.30;99.90
14188;DHT22;7175;51.978;5.330;2022-12-11T10:52:28;3.40;99.90
14188;DHT22;7175;51.978;5.330;2022-12-11T10:55:00;3.40;99.90
14188;DHT22;7175;51.978;5.330;2022-12-11T10:57:32;3.40;99.90
14188;DHT22;7175;51.978;5.330;2022-12-11T11:00:03;3.40;99.90
14188;DHT22;7175;51.978;5.330;2022-12-11T11:02:34;3.40;99.90
14188;DHT22;7175;51.978;5.330;2022-12-11T11:05:11;3.40;99.90
14188;DHT22;7175;51.978;5.330;2022-12-11T11:07:40;3.40;99.90
14188;DHT22;7175;51.978;5.330;2022-12-11T11:10:15;3.40;99.90
14188;DHT22;7175;51.978;5.330;2022-12-11T11:12:47;3.40;99.90
14188;DHT22;7175;51.978;5.330;2022-12-11T11:15:18;3.50;99.90
14188;DHT22;7175;51.978;5.330;2022-12-11T11:17:49;3.50;99.90
14188;DHT22;7175;51.978;5.330;2022-12-11T11:20:24;3.50;99.90
14188;DHT22;7175;51.978;5.330;2022-12-11T11:22:54;3.50;99.90
14188;DHT22;7175;51.978;5.330;2022-12-11T11:25:25;3.50;99.90
14188;DHT22;7175;51.978;5.330;2022-12-11T11:27:57;3.50;99.90
14188;DHT22;7175;51.978;5.330;2022-12-11T11:30:27;3.50;99.90
14188;DHT22;7175;51.978;5.330;2022-12-11T11:32:58;3.50;99.90
14188;DHT22;7175;51.978;5.330;2022-12-11T11:35:29;3.50;99.90
14188;DHT22;7175;51.978;5.330;2022-12-11T11:38:03;3.50;99.90
14188;DHT22;7175;51.978;5.330;2022-12-11T11:40:36;3.50;99.90
14188;DHT22;7175;51.978;5.330;2022-12-11T11:43:14;3.50;99.90
14188;DHT22;7175;51.978;5.330;2022-12-11T11:45:50;3.50;99.90
14188;DHT22;7175;51.978;5.330;2022-12-11T11:48:29;3.50;99.90
14188;DHT22;7175;51.978;5.330;2022-12-11T11:51:10;3.60;99.90
14188;DHT22;7175;51.978;5.330;2022-12-11T11:53:40;3.50;99.90
14188;DHT22;7175;51.978;5.330;2022-12-11T11:56:17;3.50;99.90
14188;DHT22;7175;51.978;5.330;2022-12-11T11:58:55;3.60;99.90
14188;DHT22;7175;51.978;5.330;2022-12-11T12:01:25;3.60;99.90
14188;DHT22;7175;51.978;5.330;2022-12-11T12:03:54;3.60;99.90
14188;DHT22;7175;51.978;5.330;2022-12-11T12:06:33;3.60;99.90
14188;DHT22;7175;51.978;5.330;2022-12-11T12:09:16;3.60;99.90
14188;DHT22;7175;51.978;5.330;2022-12-11T12:11:52;3.60;99.90
14188;DHT22;7175;51.978;5.330;2022-12-11T12:14:26;3.60;99.90
14188;DHT22;7175;51.978;5.330;2022-12-11T12:17:21;3.50;99.90
14188;DHT22;7175;51.978;5.330;2022-12-11T12:19:55;3.50;99.90
14188;DHT22;7175;51.978;5.330;2022-12-11T12:22:35;3.50;99.90
14188;DHT22;7175;51.978;5.330;2022-12-11T12:25:15;3.50;99.90
14188;DHT22;7175;51.978;5.330;2022-12-11T12:27:51;3.50;99.90
14188;DHT22;7175;51.978;5.330;2022-12-11T12:30:22;3.40;99.90
14188;DHT22;7175;51.978;5.330;2022-12-11T12:33:03;3.50;99.90
14188;DHT22;7175;51.978;5.330;2022-12-11T12:35:34;3.50;99.90
14188;DHT22;7175;51.978;5.330;2022-12-11T12:38:09;3.50;99.90
14188;DHT22;7175;51.978;5.330;2022-12-11T12:40:47;3.50;99.90
14188;DHT22;7175;51.978;5.330;2022-12-11T12:43:38;3.50;99.90
14188;DHT22;7175;51.978;5.330;2022-12-11T12:46:20;3.50;99.90
14188;DHT22;7175;51.978;5.330;2022-12-11T12:48:56;3.50;99.90
14188;DHT22;7175;51.978;5.330;2022-12-11T12:51:26;3.50;99.90
14188;DHT22;7175;51.978;5.330;2022-12-11T12:53:58;3.50;99.90
14188;DHT22;7175;51.978;5.330;2022-12-11T12:56:28;3.50;99.90
14188;DHT22;7175;51.978;5.330;2022-12-11T12:59:00;3.50;99.90
14188;DHT22;7175;51.978;5.330;2022-12-11T13:01:31;3.50;99.90
14188;DHT22;7175;51.978;5.330;2022-12-11T13:04:01;3.40;99.90
14188;DHT22;7175;51.978;5.330;2022-12-11T13:06:33;3.40;99.90
14188;DHT22;7175;51.978;5.330;2022-12-11T13:09:13;3.40;99.90
14188;DHT22;7175;51.978;5.330;2022-12-11T13:11:44;3.40;99.90
14188;DHT22;7175;51.978;5.330;2022-12-11T13:14:25;3.50;99.90
14188;DHT22;7175;51.978;5.330;2022-12-11T13:17:07;3.50;99.90
14188;DHT22;7175;51.978;5.330;2022-12-11T13:19:50;3.50;99.90
14188;DHT22;7175;51.978;5.330;2022-12-11T13:22:30;3.50;99.90
14188;DHT22;7175;51.978;5.330;2022-12-11T13:25:01;3.50;99.90
14188;DHT22;7175;51.978;5.330;2022-12-11T13:27:37;3.50;99.90
14188;DHT22;7175;51.978;5.330;2022-12-11T13:30:19;3.50;99.90
14188;DHT22;7175;51.978;5.330;2022-12-11T13:32:59;3.50;99.90
14188;DHT22;7175;51.978;5.330;2022-12-11T13:35:29;3.60;99.90
14188;DHT22;7175;51.978;5.330;2022-12-11T13:38:03;3.60;99.90
14188;DHT22;7175;51.978;5.330;2022-12-11T13:40:37;3.50;99.90
14188;DHT22;7175;51.978;5.330;2022-12-11T13:43:14;3.50;99.90
14188;DHT22;7175;51.978;5.330;2022-12-11T13:45:47;3.50;99.90
14188;DHT22;7175;51.978;5.330;2022-12-11T13:48:21;3.50;99.90
14188;DHT22;7175;51.978;5.330;2022-12-11T13:50:51;3.50;99.90
14188;DHT22;7175;51.978;5.330;2022-12-11T13:53:20;3.50;99.90
14188;DHT22;7175;51.978;5.330;2022-12-11T13:55:55;3.50;99.90
14188;DHT22;7175;51.978;5.330;2022-12-11T13:58:24;3.50;99.90
14188;DHT22;7175;51.978;5.330;2022-12-11T14:01:01;3.50;99.90
14188;DHT22;7175;51.978;5.330;2022-12-11T14:03:33;3.50;99.90
14188;DHT22;7175;51.978;5.330;2022-12-11T14:06:02;3.50;99.90
14188;DHT22;7175;51.978;5.330;2022-12-11T14:08:32;3.50;99.90
14188;DHT22;7175;51.978;5.330;2022-12-11T14:11:02;3.50;99.90
14188;DHT22;7175;51.978;5.330;2022-12-11T14:13:33;3.50;99.90
14188;DHT22;7175;51.978;5.330;2022-12-11T14:16:03;3.50;99.90
14188;DHT22;7175;51.978;5.330;2022-12-11T14:18:35;3.50;99.90
14188;DHT22;7175;51.978;5.330;2022-12-11T14:21:05;3.50;99.90
14188;DHT22;7175;51.978;5.330;2022-12-11T14:23:35;3.50;99.90
14188;DHT22;7175;51.978;5.330;2022-12-11T14:26:15;3.50;99.90
14188;DHT22;7175;51.978;5.330;2022-12-11T14:28:44;3.50;99.90
14188;DHT22;7175;51.978;5.330;2022-12-11T14:31:14;3.40;99.90
14188;DHT22;7175;51.978;5.330;2022-12-11T14:33:48;3.50;99.90
14188;DHT22;7175;51.978;5.330;2022-12-11T14:36:18;3.40;99.90
14188;DHT22;7175;51.978;5.330;2022-12-11T14:38:53;3.40;99.90
14188;DHT22;7175;51.978;5.330;2022-12-11T14:41:26;3.40;99.90
14188;DHT22;7175;51.978;5.330;2022-12-11T14:43:58;3.40;99.90
14188;DHT22;7175;51.978;5.330;2022-12-11T14:46:34;3.40;99.90
14188;DHT22;7175;51.978;5.330;2022-12-11T14:49:10;3.40;99.90
14188;DHT22;7175;51.978;5.330;2022-12-11T14:51:40;3.40;99.90
14188;DHT22;7175;51.978;5.330;2022-12-11T14:54:16;3.40;99.90
14188;DHT22;7175;51.978;5.330;2022-12-11T14:56:46;3.40;99.90
14188;DHT22;7175;51.978;5.330;2022-12-11T14:59:18;3.40;99.90
14188;DHT22;7175;51.978;5.330;2022-12-11T15:02:01;3.40;99.90
14188;DHT22;7175;51.978;5.330;2022-12-11T15:04:32;3.40;99.90
14188;DHT22;7175;51.978;5.330;2022-12-11T15:07:00;3.40;99.90
14188;DHT22;7175;51.978;5.330;2022-12-11T15:09:36;3.40;99.90
14188;DHT22;7175;51.978;5.330;2022-12-11T15:12:10;3.40;99.90
14188;DHT22;7175;51.978;5.330;2022-12-11T15:14:43;3.40;99.90
14188;DHT22;7175;51.978;5.330;2022-12-11T15:17:14;3.40;99.90
14188;DHT22;7175;51.978;5.330;2022-12-11T15:19:48;3.40;99.90
14188;DHT22;7175;51.978;5.330;2022-12-11T15:22:19;3.30;99.90
14188;DHT22;7175;51.978;5.330;2022-12-11T15:24:51;3.40;99.90
14188;DHT22;7175;51.978;5.330;2022-12-11T15:27:26;3.30;99.90
14188;DHT22;7175;51.978;5.330;2022-12-11T15:29:57;3.30;99.90
14188;DHT22;7175;51.978;5.330;2022-12-11T15:32:25;3.30;99.90
14188;DHT22;7175;51.978;5.330;2022-12-11T15:34:57;3.30;99.90
14188;DHT22;7175;51.978;5.330;2022-12-11T15:37:27;3.30;99.90
14188;DHT22;7175;51.978;5.330;2022-12-11T15:39:57;3.30;99.90
14188;DHT22;7175;51.978;5.330;2022-12-11T15:42:29;3.30;99.90
14188;DHT22;7175;51.978;5.330;2022-12-11T15:44:58;3.30;99.90
14188;DHT22;7175;51.978;5.330;2022-12-11T15:47:28;3.30;99.90
14188;DHT22;7175;51.978;5.330;2022-12-11T15:49:59;3.30;99.90
14188;DHT22;7175;51.978;5.330;2022-12-11T15:52:28;3.30;99.90
14188;DHT22;7175;51.978;5.330;2022-12-11T15:54:56;3.30;99.90
14188;DHT22;7175;51.978;5.330;2022-12-11T15:57:25;3.30;99.90
14188;DHT22;7175;51.978;5.330;2022-12-11T15:59:53;3.30;99.90
14188;DHT22;7175;51.978;5.330;2022-12-11T16:02:22;3.30;99.90
14188;DHT22;7175;51.978;5.330;2022-12-11T16:04:53;3.30;99.90
14188;DHT22;7175;51.978;5.330;2022-12-11T16:07:24;3.30;99.90
14188;DHT22;7175;51.978;5.330;2022-12-11T16:09:53;3.40;99.90
14188;DHT22;7175;51.978;5.330;2022-12-11T16:12:21;3.40;99.90
14188;DHT22;7175;51.978;5.330;2022-12-11T16:14:49;3.40;99.90
14188;DHT22;7175;51.978;5.330;2022-12-11T16:17:17;3.40;99.90
14188;DHT22;7175;51.978;5.330;2022-12-11T16:19:46;3.40;99.90
14188;DHT22;7175;51.978;5.330;2022-12-11T16:22:14;3.40;99.90
14188;DHT22;7175;51.978;5.330;2022-12-11T16:24:43;3.40;99.90
14188;DHT22;7175;51.978;5.330;2022-12-11T16:27:12;3.30;99.90
14188;DHT22;7175;51.978;5.330;2022-12-11T16:29:47;3.30;99.90
14188;DHT22;7175;51.978;5.330;2022-12-11T16:32:15;3.30;99.90